sensor_id;sensor_type;location;lat;lon;timestamp;temperature;humidity
57218;DHT22;43078;52.972;6.482;2022-10-22T00:01:08;13.90;99.90
57218;DHT22;43078;52.972;6.482;2022-10-22T00:03:34;13.90;99.90
57218;DHT22;43078;52.972;6.482;2022-10-22T00:05:59;13.90;99.90
57218;DHT22;43078;52.972;6.482;2022-10-22T00:08:25;13.90;99.90
57218;DHT22;43078;52.972;6.482;2022-10-22T00:10:51;13.80;99.90
57218;DHT22;43078;52.972;6.482;2022-10-22T00:13:17;13.80;99.90
57218;DHT22;43078;52.972;6.482;2022-10-22T00:15:43;13.80;99.90
57218;DHT22;43078;52.972;6.482;2022-10-22T00:18:09;13.80;99.90
57218;DHT22;43078;52.972;6.482;2022-10-22T00:20:35;13.80;99.90
57218;DHT22;43078;52.972;6.482;2022-10-22T00:23:00;13.70;99.90
57218;DHT22;43078;52.972;6.482;2022-10-22T00:25:26;13.70;99.90
57218;DHT22;43078;52.972;6.482;2022-10-22T00:27:52;13.70;99.90
57218;DHT22;43078;52.972;6.482;2022-10-22T00:30:17;13.60;99.90
57218;DHT22;43078;52.972;6.482;2022-10-22T00:32:43;13.60;99.90
57218;DHT22;43078;52.972;6.482;2022-10-22T00:35:09;13.60;99.90
57218;DHT22;43078;52.972;6.482;2022-10-22T00:37:34;13.60;99.90
57218;DHT22;43078;52.972;6.482;2022-10-22T00:40:00;13.50;99.90
57218;DHT22;43078;52.972;6.482;2022-10-22T00:42:27;13.50;99.90
57218;DHT22;43078;52.972;6.482;2022-10-22T00:45:06;13.50;99.90
57218;DHT22;43078;52.972;6.482;2022-10-22T00:47:38;13.50;99.90
57218;DHT22;43078;52.972;6.482;2022-10-22T00:50:08;13.40;99.90
57218;DHT22;43078;52.972;6.482;2022-10-22T00:52:35;13.40;99.90
57218;DHT22;43078;52.972;6.482;2022-10-22T00:55:01;13.40;99.90
57218;DHT22;43078;52.972;6.482;2022-10-22T00:57:27;13.40;99.90
57218;DHT22;43078;52.972;6.482;2022-10-22T00:59:54;13.30;99.90
57218;DHT22;43078;52.972;6.482;2022-10-22T01:02:20;13.30;99.90
57218;DHT22;43078;52.972;6.482;2022-10-22T01:04:46;13.30;99.90
57218;DHT22;43078;52.972;6.482;2022-10-22T01:07:16;13.30;99.90
57218;DHT22;43078;52.972;6.482;2022-10-22T01:15:59;13.20;99.90
57218;DHT22;43078;52.972;6.482;2022-10-22T01:18:12;13.20;99.90
57218;DHT22;43078;52.972;6.482;2022-10-22T01:23:27;13.10;99.90
57218;DHT22;43078;52.972;6.482;2022-10-22T01:26:25;13.10;99.90
57218;DHT22;43078;52.972;6.482;2022-10-22T01:29:08;13.10;99.90
57218;DHT22;43078;52.972;6.482;2022-10-22T01:31:42;13.10;99.90
57218;DHT22;43078;52.972;6.482;2022-10-22T01:34:09;13.10;99.90
57218;DHT22;43078;52.972;6.482;2022-10-22T01:36:37;13.00;99.90
57218;DHT22;43078;52.972;6.482;2022-10-22T01:39:04;13.00;99.90
57218;DHT22;43078;52.972;6.482;2022-10-22T01:41:32;13.00;99.90
57218;DHT22;43078;52.972;6.482;2022-10-22T01:43:58;13.00;99.90
57218;DHT22;43078;52.972;6.482;2022-10-22T01:46:26;13.00;99.90
57218;DHT22;43078;52.972;6.482;2022-10-22T01:53:59;13.00;99.90
57218;DHT22;43078;52.972;6.482;2022-10-22T02:04:47;13.00;99.90
57218;DHT22;43078;52.972;6.482;2022-10-22T02:07:17;13.00;99.90
57218;DHT22;43078;52.972;6.482;2022-10-22T02:09:44;13.10;99.90
57218;DHT22;43078;52.972;6.482;2022-10-22T02:12:12;13.00;99.90
57218;DHT22;43078;52.972;6.482;2022-10-22T02:14:40;13.00;99.90
57218;DHT22;43078;52.972;6.482;2022-10-22T02:17:10;13.00;99.90
57218;DHT22;43078;52.972;6.482;2022-10-22T02:19:52;13.00;99.90
57218;DHT22;43078;52.972;6.482;2022-10-22T02:22:19;13.00;99.90
57218;DHT22;43078;52.972;6.482;2022-10-22T02:25:03;13.00;99.90
57218;DHT22;43078;52.972;6.482;2022-10-22T02:27:34;13.00;99.90
57218;DHT22;43078;52.972;6.482;2022-10-22T02:30:29;13.00;99.90
57218;DHT22;43078;52.972;6.482;2022-10-22T02:33:03;13.00;99.90
57218;DHT22;43078;52.972;6.482;2022-10-22T02:35:31;13.00;99.90
57218;DHT22;43078;52.972;6.482;2022-10-22T02:37:58;13.00;99.90
57218;DHT22;43078;52.972;6.482;2022-10-22T02:40:24;13.00;99.90
57218;DHT22;43078;52.972;6.482;2022-10-22T02:42:50;13.00;99.90
57218;DHT22;43078;52.972;6.482;2022-10-22T02:45:18;13.10;99.90
57218;DHT22;43078;52.972;6.482;2022-10-22T02:47:44;13.10;99.90
57218;DHT22;43078;52.972;6.482;2022-10-22T02:50:10;13.00;99.90
57218;DHT22;43078;52.972;6.482;2022-10-22T02:52:35;13.10;99.90
57218;DHT22;43078;52.972;6.482;2022-10-22T02:55:02;13.00;99.90
57218;DHT22;43078;52.972;6.482;2022-10-22T02:57:27;13.00;99.90
57218;DHT22;43078;52.972;6.482;2022-10-22T02:59:53;13.00;99.90
57218;DHT22;43078;52.972;6.482;2022-10-22T03:02:19;13.10;99.90
57218;DHT22;43078;52.972;6.482;2022-10-22T03:04:44;13.00;99.90
57218;DHT22;43078;52.972;6.482;2022-10-22T03:07:10;13.10;99.90
57218;DHT22;43078;52.972;6.482;2022-10-22T03:09:35;13.00;99.90
57218;DHT22;43078;52.972;6.482;2022-10-22T03:12:01;13.10;99.90
57218;DHT22;43078;52.972;6.482;2022-10-22T03:14:27;13.10;99.90
57218;DHT22;43078;52.972;6.482;2022-10-22T03:16:52;13.00;99.90
57218;DHT22;43078;52.972;6.482;2022-10-22T03:19:18;13.00;99.90
57218;DHT22;43078;52.972;6.482;2022-10-22T03:21:54;13.00;99.90
57218;DHT22;43078;52.972;6.482;2022-10-22T03:24:24;13.00;99.90
57218;DHT22;43078;52.972;6.482;2022-10-22T03:26:51;13.00;99.90
57218;DHT22;43078;52.972;6.482;2022-10-22T03:29:18;13.00;99.90
57218;DHT22;43078;52.972;6.482;2022-10-22T03:31:45;13.00;99.90
57218;DHT22;43078;52.972;6.482;2022-10-22T03:34:11;13.00;99.90
57218;DHT22;43078;52.972;6.482;2022-10-22T03:36:38;12.90;99.90
57218;DHT22;43078;52.972;6.482;2022-10-22T03:39:05;12.90;99.90
57218;DHT22;43078;52.972;6.482;2022-10-22T03:41:31;12.90;99.90
57218;DHT22;43078;52.972;6.482;2022-10-22T03:43:59;12.90;99.90
57218;DHT22;43078;52.972;6.482;2022-10-22T03:46:25;12.90;99.90
57218;DHT22;43078;52.972;6.482;2022-10-22T03:48:51;12.90;99.90
57218;DHT22;43078;52.972;6.482;2022-10-22T03:51:17;12.90;99.90
57218;DHT22;43078;52.972;6.482;2022-10-22T03:53:42;12.90;99.90
57218;DHT22;43078;52.972;6.482;2022-10-22T03:56:09;12.90;99.90
57218;DHT22;43078;52.972;6.482;2022-10-22T03:58:36;12.90;99.90
57218;DHT22;43078;52.972;6.482;2022-10-22T04:01:07;12.90;99.90
57218;DHT22;43078;52.972;6.482;2022-10-22T04:03:33;12.90;99.90
57218;DHT22;43078;52.972;6.482;2022-10-22T04:06:17;12.90;99.90
57218;DHT22;43078;52.972;6.482;2022-10-22T04:08:44;12.90;99.90
57218;DHT22;43078;52.972;6.482;2022-10-22T04:11:11;12.80;99.90
57218;DHT22;43078;52.972;6.482;2022-10-22T04:13:37;12.80;99.90
57218;DHT22;43078;52.972;6.482;2022-10-22T04:16:17;12.80;99.90
57218;DHT22;43078;52.972;6.482;2022-10-22T04:18:44;12.80;99.90
57218;DHT22;43078;52.972;6.482;2022-10-22T04:21:11;12.80;99.90
57218;DHT22;43078;52.972;6.482;2022-10-22T04:23:38;12.80;99.90
57218;DHT22;43078;52.972;6.482;2022-10-22T04:26:05;12.80;99.90
57218;DHT22;43078;52.972;6.482;2022-10-22T04:28:35;12.80;99.90
57218;DHT22;43078;52.972;6.482;2022-10-22T04:31:09;12.80;99.90
57218;DHT22;43078;52.972;6.482;2022-10-22T04:33:35;12.80;99.90
57218;DHT22;43078;52.972;6.482;2022-10-22T04:36:06;12.70;99.90
57218;DHT22;43078;52.972;6.482;2022-10-22T04:38:32;12.70;99.90
57218;DHT22;43078;52.972;6.482;2022-10-22T04:41:10;12.70;99.90
57218;DHT22;43078;52.972;6.482;2022-10-22T04:43:36;12.70;99.90
57218;DHT22;43078;52.972;6.482;2022-10-22T04:46:02;12.70;99.90
57218;DHT22;43078;52.972;6.482;2022-10-22T04:48:27;12.70;99.90
57218;DHT22;43078;52.972;6.482;2022-10-22T04:50:53;12.70;99.90
57218;DHT22;43078;52.972;6.482;2022-10-22T04:53:20;12.70;99.90
57218;DHT22;43078;52.972;6.482;2022-10-22T04:55:46;12.70;99.90
57218;DHT22;43078;52.972;6.482;2022-10-22T04:58:12;12.70;99.90
57218;DHT22;43078;52.972;6.482;2022-10-22T05:00:37;12.70;99.90
57218;DHT22;43078;52.972;6.482;2022-10-22T05:03:03;12.70;99.90
57218;DHT22;43078;52.972;6.482;2022-10-22T05:05:28;12.70;99.90
57218;DHT22;43078;52.972;6.482;2022-10-22T05:07:54;12.70;99.90
57218;DHT22;43078;52.972;6.482;2022-10-22T05:10:19;12.70;99.90
57218;DHT22;43078;52.972;6.482;2022-10-22T05:12:45;12.70;99.90
57218;DHT22;43078;52.972;6.482;2022-10-22T05:15:10;12.70;99.90
57218;DHT22;43078;52.972;6.482;2022-10-22T05:17:36;12.70;99.90
57218;DHT22;43078;52.972;6.482;2022-10-22T05:20:03;12.70;99.90
57218;DHT22;43078;52.972;6.482;2022-10-22T05:22:29;12.70;99.90
57218;DHT22;43078;52.972;6.482;2022-10-22T05:24:55;12.60;99.90
57218;DHT22;43078;52.972;6.482;2022-10-22T05:27:20;12.70;99.90
57218;DHT22;43078;52.972;6.482;2022-10-22T05:29:46;12.60;99.90
57218;DHT22;43078;52.972;6.482;2022-10-22T05:32:11;12.70;99.90
57218;DHT22;43078;52.972;6.482;2022-10-22T05:34:37;12.60;99.90
57218;DHT22;43078;52.972;6.482;2022-10-22T05:37:03;12.60;99.90
57218;DHT22;43078;52.972;6.482;2022-10-22T05:39:28;12.60;99.90
57218;DHT22;43078;52.972;6.482;2022-10-22T05:41:54;12.60;99.90
57218;DHT22;43078;52.972;6.482;2022-10-22T05:44:20;12.60;99.90
57218;DHT22;43078;52.972;6.482;2022-10-22T05:46:45;12.70;99.90
57218;DHT22;43078;52.972;6.482;2022-10-22T05:49:13;12.70;99.90
57218;DHT22;43078;52.972;6.482;2022-10-22T05:51:39;12.70;99.90
57218;DHT22;43078;52.972;6.482;2022-10-22T05:54:07;12.70;99.90
57218;DHT22;43078;52.972;6.482;2022-10-22T05:56:33;12.70;99.90
57218;DHT22;43078;52.972;6.482;2022-10-22T05:59:00;12.70;99.90
57218;DHT22;43078;52.972;6.482;2022-10-22T06:01:31;12.70;99.90
57218;DHT22;43078;52.972;6.482;2022-10-22T06:04:03;12.70;99.90
57218;DHT22;43078;52.972;6.482;2022-10-22T06:09:20;12.70;99.90
57218;DHT22;43078;52.972;6.482;2022-10-22T06:11:47;12.70;99.90
57218;DHT22;43078;52.972;6.482;2022-10-22T06:14:23;12.70;99.90
57218;DHT22;43078;52.972;6.482;2022-10-22T06:17:35;12.80;99.90
57218;DHT22;43078;52.972;6.482;2022-10-22T06:26:40;12.70;99.90
57218;DHT22;43078;52.972;6.482;2022-10-22T06:29:07;12.80;99.90
57218;DHT22;43078;52.972;6.482;2022-10-22T06:31:33;12.80;99.90
57218;DHT22;43078;52.972;6.482;2022-10-22T06:34:03;12.80;99.90
57218;DHT22;43078;52.972;6.482;2022-10-22T06:36:29;12.80;99.90
57218;DHT22;43078;52.972;6.482;2022-10-22T06:38:55;12.80;99.90
57218;DHT22;43078;52.972;6.482;2022-10-22T06:41:21;12.80;99.90
57218;DHT22;43078;52.972;6.482;2022-10-22T06:43:47;12.80;99.90
57218;DHT22;43078;52.972;6.482;2022-10-22T06:46:15;12.90;99.90
57218;DHT22;43078;52.972;6.482;2022-10-22T06:48:47;12.80;99.90
57218;DHT22;43078;52.972;6.482;2022-10-22T06:51:13;12.90;99.90
57218;DHT22;43078;52.972;6.482;2022-10-22T06:53:39;12.90;99.90
57218;DHT22;43078;52.972;6.482;2022-10-22T06:56:10;12.90;99.90
57218;DHT22;43078;52.972;6.482;2022-10-22T06:58:36;12.90;99.90
57218;DHT22;43078;52.972;6.482;2022-10-22T07:01:10;12.90;99.90
57218;DHT22;43078;52.972;6.482;2022-10-22T07:03:37;12.90;99.90
57218;DHT22;43078;52.972;6.482;2022-10-22T07:06:05;13.00;99.90
57218;DHT22;43078;52.972;6.482;2022-10-22T07:08:31;13.00;99.90
57218;DHT22;43078;52.972;6.482;2022-10-22T07:11:07;13.00;99.90
57218;DHT22;43078;52.972;6.482;2022-10-22T07:13:33;13.00;99.90
57218;DHT22;43078;52.972;6.482;2022-10-22T07:15:59;13.10;99.90
57218;DHT22;43078;52.972;6.482;2022-10-22T07:18:25;13.10;99.90
57218;DHT22;43078;52.972;6.482;2022-10-22T07:20:51;13.10;99.90
57218;DHT22;43078;52.972;6.482;2022-10-22T07:23:16;13.20;99.90
57218;DHT22;43078;52.972;6.482;2022-10-22T07:25:42;13.20;99.90
57218;DHT22;43078;52.972;6.482;2022-10-22T07:28:08;13.20;99.90
57218;DHT22;43078;52.972;6.482;2022-10-22T07:30:35;13.20;99.90
57218;DHT22;43078;52.972;6.482;2022-10-22T07:33:01;13.20;99.90
57218;DHT22;43078;52.972;6.482;2022-10-22T07:35:26;13.30;99.90
57218;DHT22;43078;52.972;6.482;2022-10-22T07:37:52;13.30;99.90
57218;DHT22;43078;52.972;6.482;2022-10-22T07:40:17;13.30;99.90
57218;DHT22;43078;52.972;6.482;2022-10-22T07:42:43;13.30;99.90
57218;DHT22;43078;52.972;6.482;2022-10-22T07:45:09;13.40;99.90
57218;DHT22;43078;52.972;6.482;2022-10-22T07:47:34;13.40;99.90
57218;DHT22;43078;52.972;6.482;2022-10-22T07:50:00;13.40;99.90
57218;DHT22;43078;52.972;6.482;2022-10-22T07:52:26;13.40;99.90
57218;DHT22;43078;52.972;6.482;2022-10-22T07:54:52;13.40;99.90
57218;DHT22;43078;52.972;6.482;2022-10-22T07:57:17;13.50;99.90
57218;DHT22;43078;52.972;6.482;2022-10-22T07:59:43;13.50;99.90
57218;DHT22;43078;52.972;6.482;2022-10-22T08:02:10;13.50;99.90
57218;DHT22;43078;52.972;6.482;2022-10-22T08:04:36;13.50;99.90
57218;DHT22;43078;52.972;6.482;2022-10-22T08:07:01;13.60;99.90
57218;DHT22;43078;52.972;6.482;2022-10-22T08:09:27;13.60;99.90
57218;DHT22;43078;52.972;6.482;2022-10-22T08:11:53;13.70;99.90
57218;DHT22;43078;52.972;6.482;2022-10-22T08:14:19;13.60;99.90
57218;DHT22;43078;52.972;6.482;2022-10-22T08:16:45;13.70;99.90
57218;DHT22;43078;52.972;6.482;2022-10-22T08:19:11;13.70;99.90
57218;DHT22;43078;52.972;6.482;2022-10-22T08:21:38;13.70;99.90
57218;DHT22;43078;52.972;6.482;2022-10-22T08:24:04;13.70;99.90
57218;DHT22;43078;52.972;6.482;2022-10-22T08:26:30;13.80;99.90
57218;DHT22;43078;52.972;6.482;2022-10-22T08:28:56;13.80;99.90
57218;DHT22;43078;52.972;6.482;2022-10-22T08:31:21;13.80;99.90
57218;DHT22;43078;52.972;6.482;2022-10-22T08:33:47;13.90;99.90
57218;DHT22;43078;52.972;6.482;2022-10-22T08:36:13;13.90;99.90
57218;DHT22;43078;52.972;6.482;2022-10-22T08:38:39;14.00;99.90
57218;DHT22;43078;52.972;6.482;2022-10-22T08:41:19;14.10;99.90
57218;DHT22;43078;52.972;6.482;2022-10-22T08:49:29;14.20;99.90
57218;DHT22;43078;52.972;6.482;2022-10-22T08:51:56;14.30;99.90
57218;DHT22;43078;52.972;6.482;2022-10-22T08:54:53;14.30;99.90
57218;DHT22;43078;52.972;6.482;2022-10-22T08:59:53;14.40;99.90
57218;DHT22;43078;52.972;6.482;2022-10-22T09:02:31;14.50;99.90
57218;DHT22;43078;52.972;6.482;2022-10-22T09:05:17;14.50;99.90
57218;DHT22;43078;52.972;6.482;2022-10-22T09:07:46;14.60;99.90
57218;DHT22;43078;52.972;6.482;2022-10-22T09:10:18;14.60;99.90
57218;DHT22;43078;52.972;6.482;2022-10-22T09:12:47;14.70;99.90
57218;DHT22;43078;52.972;6.482;2022-10-22T09:15:17;14.70;99.90
57218;DHT22;43078;52.972;6.482;2022-10-22T09:18:09;14.80;99.90
57218;DHT22;43078;52.972;6.482;2022-10-22T09:20:52;14.90;99.90
57218;DHT22;43078;52.972;6.482;2022-10-22T09:23:36;14.90;99.90
57218;DHT22;43078;52.972;6.482;2022-10-22T09:26:12;15.00;99.90
57218;DHT22;43078;52.972;6.482;2022-10-22T09:28:39;15.00;99.90
57218;DHT22;43078;52.972;6.482;2022-10-22T09:31:12;15.10;99.90
57218;DHT22;43078;52.972;6.482;2022-10-22T09:33:39;15.10;99.90
57218;DHT22;43078;52.972;6.482;2022-10-22T09:36:05;15.10;99.90
57218;DHT22;43078;52.972;6.482;2022-10-22T09:38:51;15.10;99.90
57218;DHT22;43078;52.972;6.482;2022-10-22T09:41:18;15.20;99.90
57218;DHT22;43078;52.972;6.482;2022-10-22T09:43:48;15.20;99.90
57218;DHT22;43078;52.972;6.482;2022-10-22T09:46:19;15.20;99.90
57218;DHT22;43078;52.972;6.482;2022-10-22T09:51:49;15.20;99.90
57218;DHT22;43078;52.972;6.482;2022-10-22T09:59:39;15.30;99.90
57218;DHT22;43078;52.972;6.482;2022-10-22T10:02:13;15.40;99.90
57218;DHT22;43078;52.972;6.482;2022-10-22T10:04:47;15.40;99.90
57218;DHT22;43078;52.972;6.482;2022-10-22T10:07:16;15.40;99.90
57218;DHT22;43078;52.972;6.482;2022-10-22T10:09:41;15.40;99.90
57218;DHT22;43078;52.972;6.482;2022-10-22T10:17:27;15.50;99.90
57218;DHT22;43078;52.972;6.482;2022-10-22T10:22:54;15.50;99.90
57218;DHT22;43078;52.972;6.482;2022-10-22T10:30:55;15.60;99.90
57218;DHT22;43078;52.972;6.482;2022-10-22T10:33:53;15.60;99.90
57218;DHT22;43078;52.972;6.482;2022-10-22T10:36:39;15.60;99.90
57218;DHT22;43078;52.972;6.482;2022-10-22T10:39:12;15.70;99.90
57218;DHT22;43078;52.972;6.482;2022-10-22T10:41:53;15.70;99.90
57218;DHT22;43078;52.972;6.482;2022-10-22T10:47:27;15.80;99.90
57218;DHT22;43078;52.972;6.482;2022-10-22T10:50:11;15.80;99.90
57218;DHT22;43078;52.972;6.482;2022-10-22T10:52:47;15.90;99.90
57218;DHT22;43078;52.972;6.482;2022-10-22T10:55:27;15.90;99.90
57218;DHT22;43078;52.972;6.482;2022-10-22T11:01:07;15.90;99.90
57218;DHT22;43078;52.972;6.482;2022-10-22T11:06:49;15.90;99.90
57218;DHT22;43078;52.972;6.482;2022-10-22T11:09:35;15.90;99.90
57218;DHT22;43078;52.972;6.482;2022-10-22T11:12:07;15.90;99.90
57218;DHT22;43078;52.972;6.482;2022-10-22T11:14:55;15.90;99.90
57218;DHT22;43078;52.972;6.482;2022-10-22T11:17:26;16.00;99.90
57218;DHT22;43078;52.972;6.482;2022-10-22T11:22:33;16.00;99.90
57218;DHT22;43078;52.972;6.482;2022-10-22T11:25:24;16.00;99.90
57218;DHT22;43078;52.972;6.482;2022-10-22T11:30:23;16.00;99.90
57218;DHT22;43078;52.972;6.482;2022-10-22T11:33:01;16.00;99.90
57218;DHT22;43078;52.972;6.482;2022-10-22T11:35:38;16.00;99.90
57218;DHT22;43078;52.972;6.482;2022-10-22T11:38:05;16.10;99.90
57218;DHT22;43078;52.972;6.482;2022-10-22T11:40:43;16.10;99.90
57218;DHT22;43078;52.972;6.482;2022-10-22T11:43:11;16.10;99.90
57218;DHT22;43078;52.972;6.482;2022-10-22T11:46:42;16.10;99.90
57218;DHT22;43078;52.972;6.482;2022-10-22T11:48:42;16.10;99.90
57218;DHT22;43078;52.972;6.482;2022-10-22T11:53:57;16.20;99.90
57218;DHT22;43078;52.972;6.482;2022-10-22T11:56:45;16.20;99.90
57218;DHT22;43078;52.972;6.482;2022-10-22T11:59:39;16.20;99.90
57218;DHT22;43078;52.972;6.482;2022-10-22T12:02:40;16.20;99.90
57218;DHT22;43078;52.972;6.482;2022-10-22T12:08:00;16.20;99.90
57218;DHT22;43078;52.972;6.482;2022-10-22T12:10:33;16.20;99.90
57218;DHT22;43078;52.972;6.482;2022-10-22T12:13:23;16.20;99.90
57218;DHT22;43078;52.972;6.482;2022-10-22T12:15:53;16.20;99.90
57218;DHT22;43078;52.972;6.482;2022-10-22T12:18:23;16.10;99.90
57218;DHT22;43078;52.972;6.482;2022-10-22T12:20:51;16.10;99.90
57218;DHT22;43078;52.972;6.482;2022-10-22T12:23:20;16.20;99.90
57218;DHT22;43078;52.972;6.482;2022-10-22T12:25:49;16.20;99.90
57218;DHT22;43078;52.972;6.482;2022-10-22T12:28:14;16.20;99.90
57218;DHT22;43078;52.972;6.482;2022-10-22T12:30:40;16.10;99.90
57218;DHT22;43078;52.972;6.482;2022-10-22T12:33:22;16.10;99.90
57218;DHT22;43078;52.972;6.482;2022-10-22T12:35:49;16.10;99.90
57218;DHT22;43078;52.972;6.482;2022-10-22T12:38:20;16.20;99.90
57218;DHT22;43078;52.972;6.482;2022-10-22T12:40:46;16.10;99.90
57218;DHT22;43078;52.972;6.482;2022-10-22T12:43:23;16.10;99.90
57218;DHT22;43078;52.972;6.482;2022-10-22T12:45:49;16.10;99.90
57218;DHT22;43078;52.972;6.482;2022-10-22T12:48:22;16.10;99.90
57218;DHT22;43078;52.972;6.482;2022-10-22T12:50:59;16.10;99.90
57218;DHT22;43078;52.972;6.482;2022-10-22T12:53:33;16.20;99.90
57218;DHT22;43078;52.972;6.482;2022-10-22T12:56:04;16.20;99.90
57218;DHT22;43078;52.972;6.482;2022-10-22T12:58:42;16.20;99.90
57218;DHT22;43078;52.972;6.482;2022-10-22T13:01:10;16.20;99.90
57218;DHT22;43078;52.972;6.482;2022-10-22T13:03:44;16.30;99.90
57218;DHT22;43078;52.972;6.482;2022-10-22T13:08:44;16.30;99.90
57218;DHT22;43078;52.972;6.482;2022-10-22T13:11:19;16.30;99.90
57218;DHT22;43078;52.972;6.482;2022-10-22T13:13:45;16.40;99.90
57218;DHT22;43078;52.972;6.482;2022-10-22T13:18:38;16.40;99.90
57218;DHT22;43078;52.972;6.482;2022-10-22T13:21:03;16.40;99.90
57218;DHT22;43078;52.972;6.482;2022-10-22T13:23:32;16.40;99.90
57218;DHT22;43078;52.972;6.482;2022-10-22T13:26:03;16.40;99.90
57218;DHT22;43078;52.972;6.482;2022-10-22T13:28:36;16.40;99.90
57218;DHT22;43078;52.972;6.482;2022-10-22T13:31:14;16.50;99.90
57218;DHT22;43078;52.972;6.482;2022-10-22T13:33:43;16.50;99.90
57218;DHT22;43078;52.972;6.482;2022-10-22T13:36:16;16.50;99.90
57218;DHT22;43078;52.972;6.482;2022-10-22T13:38:42;16.50;99.90
57218;DHT22;43078;52.972;6.482;2022-10-22T13:43:44;16.60;99.90
57218;DHT22;43078;52.972;6.482;2022-10-22T13:46:10;16.60;99.90
57218;DHT22;43078;52.972;6.482;2022-10-22T13:48:36;16.70;99.90
57218;DHT22;43078;52.972;6.482;2022-10-22T13:51:01;16.70;99.90
57218;DHT22;43078;52.972;6.482;2022-10-22T13:53:29;16.70;99.90
57218;DHT22;43078;52.972;6.482;2022-10-22T13:55:55;16.70;99.90
57218;DHT22;43078;52.972;6.482;2022-10-22T13:58:22;16.70;99.90
57218;DHT22;43078;52.972;6.482;2022-10-22T14:00:53;16.80;99.90
57218;DHT22;43078;52.972;6.482;2022-10-22T14:03:24;16.70;99.90
57218;DHT22;43078;52.972;6.482;2022-10-22T14:05:50;16.80;99.90
57218;DHT22;43078;52.972;6.482;2022-10-22T14:08:19;16.80;99.90
57218;DHT22;43078;52.972;6.482;2022-10-22T14:10:47;16.80;99.90
57218;DHT22;43078;52.972;6.482;2022-10-22T14:13:14;16.80;99.90
57218;DHT22;43078;52.972;6.482;2022-10-22T14:15:41;16.80;99.90
57218;DHT22;43078;52.972;6.482;2022-10-22T14:18:11;16.90;99.90
57218;DHT22;43078;52.972;6.482;2022-10-22T14:20:40;16.90;99.90
57218;DHT22;43078;52.972;6.482;2022-10-22T14:23:18;16.90;99.90
57218;DHT22;43078;52.972;6.482;2022-10-22T14:25:44;16.90;99.90
57218;DHT22;43078;52.972;6.482;2022-10-22T14:28:10;17.00;99.90
57218;DHT22;43078;52.972;6.482;2022-10-22T14:30:37;17.00;99.90
57218;DHT22;43078;52.972;6.482;2022-10-22T14:35:41;17.00;99.70
57218;DHT22;43078;52.972;6.482;2022-10-22T14:38:06;17.10;99.80
57218;DHT22;43078;52.972;6.482;2022-10-22T14:40:38;17.10;99.60
57218;DHT22;43078;52.972;6.482;2022-10-22T14:43:04;17.00;99.50
57218;DHT22;43078;52.972;6.482;2022-10-22T14:45:29;17.00;99.60
57218;DHT22;43078;52.972;6.482;2022-10-22T14:47:55;17.00;99.40
57218;DHT22;43078;52.972;6.482;2022-10-22T14:50:22;17.00;99.40
57218;DHT22;43078;52.972;6.482;2022-10-22T14:52:49;17.00;99.00
57218;DHT22;43078;52.972;6.482;2022-10-22T14:55:16;17.00;98.60
57218;DHT22;43078;52.972;6.482;2022-10-22T14:57:41;17.00;98.20
57218;DHT22;43078;52.972;6.482;2022-10-22T15:00:13;16.90;98.50
57218;DHT22;43078;52.972;6.482;2022-10-22T15:02:39;16.90;98.00
57218;DHT22;43078;52.972;6.482;2022-10-22T15:05:05;16.90;97.90
57218;DHT22;43078;52.972;6.482;2022-10-22T15:07:31;16.90;97.90
57218;DHT22;43078;52.972;6.482;2022-10-22T15:09:56;16.80;97.60
57218;DHT22;43078;52.972;6.482;2022-10-22T15:12:22;16.80;97.80
57218;DHT22;43078;52.972;6.482;2022-10-22T15:14:48;16.80;97.80
57218;DHT22;43078;52.972;6.482;2022-10-22T15:17:14;16.80;97.70
57218;DHT22;43078;52.972;6.482;2022-10-22T15:19:40;16.80;97.50
57218;DHT22;43078;52.972;6.482;2022-10-22T15:22:08;16.80;97.00
57218;DHT22;43078;52.972;6.482;2022-10-22T15:24:34;16.70;96.90
57218;DHT22;43078;52.972;6.482;2022-10-22T15:27:00;16.70;97.00
57218;DHT22;43078;52.972;6.482;2022-10-22T15:29:28;16.70;97.70
57218;DHT22;43078;52.972;6.482;2022-10-22T15:31:55;16.70;97.20
57218;DHT22;43078;52.972;6.482;2022-10-22T15:34:35;16.60;96.80
57218;DHT22;43078;52.972;6.482;2022-10-22T15:37:03;16.60;96.50
57218;DHT22;43078;52.972;6.482;2022-10-22T15:39:30;16.50;96.70
57218;DHT22;43078;52.972;6.482;2022-10-22T15:41:56;16.50;97.20
57218;DHT22;43078;52.972;6.482;2022-10-22T15:44:27;16.50;97.10
57218;DHT22;43078;52.972;6.482;2022-10-22T15:46:53;16.50;97.30
57218;DHT22;43078;52.972;6.482;2022-10-22T15:49:23;16.50;97.60
57218;DHT22;43078;52.972;6.482;2022-10-22T15:51:49;16.50;97.40
57218;DHT22;43078;52.972;6.482;2022-10-22T15:54:18;16.50;98.30
57218;DHT22;43078;52.972;6.482;2022-10-22T15:56:44;16.50;98.80
57218;DHT22;43078;52.972;6.482;2022-10-22T15:59:12;16.50;99.20
57218;DHT22;43078;52.972;6.482;2022-10-22T16:01:39;16.50;99.70
57218;DHT22;43078;52.972;6.482;2022-10-22T16:04:06;16.50;99.90
57218;DHT22;43078;52.972;6.482;2022-10-22T16:06:40;16.50;99.90
57218;DHT22;43078;52.972;6.482;2022-10-22T16:09:09;16.50;99.90
57218;DHT22;43078;52.972;6.482;2022-10-22T16:11:36;16.50;99.90
57218;DHT22;43078;52.972;6.482;2022-10-22T16:14:02;16.50;99.90
57218;DHT22;43078;52.972;6.482;2022-10-22T16:16:29;16.60;99.90
57218;DHT22;43078;52.972;6.482;2022-10-22T16:18:55;16.50;99.90
57218;DHT22;43078;52.972;6.482;2022-10-22T16:21:22;16.50;99.90
57218;DHT22;43078;52.972;6.482;2022-10-22T16:23:50;16.50;99.90
57218;DHT22;43078;52.972;6.482;2022-10-22T16:26:18;16.40;99.90
57218;DHT22;43078;52.972;6.482;2022-10-22T16:28:47;16.40;99.90
57218;DHT22;43078;52.972;6.482;2022-10-22T16:31:17;16.40;99.90
57218;DHT22;43078;52.972;6.482;2022-10-22T16:33:44;16.40;99.90
57218;DHT22;43078;52.972;6.482;2022-10-22T16:36:15;16.40;99.90
57218;DHT22;43078;52.972;6.482;2022-10-22T16:38:45;16.40;99.90
57218;DHT22;43078;52.972;6.482;2022-10-22T16:41:20;16.30;99.90
57218;DHT22;43078;52.972;6.482;2022-10-22T16:43:47;16.30;99.90
57218;DHT22;43078;52.972;6.482;2022-10-22T16:46:15;16.30;99.90
57218;DHT22;43078;52.972;6.482;2022-10-22T16:48:45;16.30;99.90
57218;DHT22;43078;52.972;6.482;2022-10-22T16:51:12;16.20;99.90
57218;DHT22;43078;52.972;6.482;2022-10-22T16:53:39;16.20;99.90
57218;DHT22;43078;52.972;6.482;2022-10-22T16:56:08;16.20;99.90
57218;DHT22;43078;52.972;6.482;2022-10-22T16:58:35;16.10;99.90
57218;DHT22;43078;52.972;6.482;2022-10-22T17:01:07;16.10;99.90
57218;DHT22;43078;52.972;6.482;2022-10-22T17:03:33;16.00;99.90
57218;DHT22;43078;52.972;6.482;2022-10-22T17:06:00;16.00;99.90
57218;DHT22;43078;52.972;6.482;2022-10-22T17:08:25;16.00;99.90
57218;DHT22;43078;52.972;6.482;2022-10-22T17:10:51;15.90;99.90
57218;DHT22;43078;52.972;6.482;2022-10-22T17:13:16;15.90;99.90
57218;DHT22;43078;52.972;6.482;2022-10-22T17:15:42;15.90;99.90